Brentwood, New Hampshire
Current Conditions -  °F | °C
As of 7:58 AM on Wednesday 26 Nov 2014 (Local Time) from KPSM Reporting Station
Overcast Overcast  
Wind Chill: 36°   Ceiling: 9500
Heat Index: 41°   Visibility: 10mi
Dew Point: 28°   Wind: 8mph
Humidity: 60%   Direction: 310°NW
Pressure: 30.17"   Gusts: NA
Location:  42.9832°N, 70.9915°W
Report Text: KPSM 261258Z 31007KT 10SM OVC095 05/M02 A3017 RMK AO2A SLP221 T00521021
Loading
Personal Weather Stations






























Interactive Weather Map New forecast layout! Learn more

10-Day Weather Forecast

Advertisements
Track Severe Weather on mobile